createdAt,value
2023-04-24T00:01:08.584Z,49.19
2023-04-24T00:04:15.262Z,49.23
2023-04-24T00:07:18.637Z,49.26
2023-04-24T00:10:23.085Z,49.19
2023-04-24T00:13:26.204Z,49.18
2023-04-24T00:16:29.075Z,49.18
2023-04-24T00:19:31.928Z,49.21
2023-04-24T00:22:35.297Z,49.09
2023-04-24T00:25:39.572Z,49.25
2023-04-24T00:28:42.334Z,49.31
2023-04-24T00:31:45.162Z,49.26
2023-04-24T00:34:47.900Z,49.24
2023-04-24T00:37:50.703Z,49.23
2023-04-24T00:40:55.593Z,49.18
2023-04-24T00:43:59.121Z,49.12
2023-04-24T00:47:02.654Z,49.19
2023-04-24T00:50:06.323Z,49.18
2023-04-24T00:53:09.167Z,49.24
2023-04-24T00:56:13.622Z,49.13
2023-04-24T00:59:18.518Z,49.17
2023-04-24T01:02:22.282Z,49.12
2023-04-24T01:05:25.217Z,49.17
2023-04-24T01:08:30.295Z,49.09
2023-04-24T01:11:34.501Z,48.99
2023-04-24T01:14:37.345Z,48.97
2023-04-24T01:17:40.703Z,48.99
2023-04-24T01:20:46.125Z,48.97
2023-04-24T01:24:02.997Z,48.86
2023-04-24T01:27:05.793Z,49.00
2023-04-24T01:30:09.764Z,49.08
2023-04-24T01:33:12.640Z,49.01
2023-04-24T01:36:16.058Z,48.99
2023-04-24T01:39:21.544Z,49.03
2023-04-24T01:42:24.787Z,49.13
2023-04-24T01:45:27.538Z,49.09
2023-04-24T01:48:31.200Z,49.02
2023-04-24T01:51:33.998Z,48.99
2023-04-24T01:54:38.162Z,48.93
2023-04-24T01:57:41.933Z,48.92
2023-04-24T02:00:44.707Z,48.92
2023-04-24T02:03:47.810Z,49.04
2023-04-24T02:06:50.671Z,48.90
2023-04-24T02:09:54.805Z,48.88
2023-04-24T02:12:57.684Z,48.99
2023-04-24T02:16:01.054Z,48.98
2023-04-24T02:19:04.012Z,49.01
2023-04-24T02:22:06.853Z,48.97
2023-04-24T02:25:12.782Z,48.99
2023-04-24T02:28:15.582Z,49.01
2023-04-24T02:31:18.546Z,48.91
2023-04-24T02:34:21.322Z,48.91
2023-04-24T02:37:24.073Z,48.74
2023-04-24T02:40:28.408Z,48.82
2023-04-24T02:43:31.156Z,48.73
2023-04-24T02:46:34.412Z,48.75
2023-04-24T02:49:37.259Z,48.74
2023-04-24T02:52:40.054Z,48.73
2023-04-24T02:55:44.260Z,48.70
2023-04-24T02:58:47.149Z,48.93
2023-04-24T03:01:50.075Z,48.96
2023-04-24T03:04:52.860Z,48.85
2023-04-24T03:07:56.991Z,48.90
2023-04-24T03:11:01.079Z,48.91
2023-04-24T03:14:03.853Z,48.89
2023-04-24T03:17:06.612Z,48.84
2023-04-24T03:20:10.767Z,48.83
2023-04-24T03:23:14.423Z,48.86
2023-04-24T03:26:18.669Z,48.87
2023-04-24T03:29:35.707Z,48.85
2023-04-24T03:32:40.298Z,48.86
2023-04-24T03:35:44.913Z,48.77
2023-04-24T03:38:48.939Z,48.89
2023-04-24T03:42:01.313Z,48.82
2023-04-24T03:45:16.750Z,48.85
2023-04-24T03:48:23.957Z,48.80
2023-04-24T03:51:28.764Z,48.81
2023-04-24T03:54:35.933Z,48.77
2023-04-24T03:57:40.076Z,48.63
2023-04-24T04:00:53.296Z,48.76
2023-04-24T04:04:14.628Z,48.76
2023-04-24T04:07:18.956Z,49.00
2023-04-24T04:10:22.009Z,48.65
2023-04-24T04:13:26.102Z,48.72
2023-04-24T04:16:29.108Z,48.75
2023-04-24T04:19:38.010Z,48.79
2023-04-24T04:22:44.115Z,48.69
2023-04-24T04:25:50.921Z,48.78
2023-04-24T04:28:56.928Z,48.81
2023-04-24T04:32:00.077Z,48.67
2023-04-24T04:35:04.600Z,48.67
2023-04-24T04:38:09.464Z,48.67
2023-04-24T04:41:26.318Z,48.59
2023-04-24T04:44:31.663Z,48.63
2023-04-24T04:47:35.855Z,48.69
2023-04-24T04:50:38.702Z,48.64
2023-04-24T04:53:44.128Z,48.61
2023-04-24T04:56:47.046Z,48.68
2023-04-24T04:59:51.142Z,48.62
2023-04-24T05:03:16.792Z,48.69
2023-04-24T05:06:24.860Z,48.70
2023-04-24T05:09:30.376Z,48.73
2023-04-24T05:12:38.413Z,48.66
2023-04-24T05:15:42.998Z,48.60
2023-04-24T05:18:45.759Z,48.55
2023-04-24T05:21:51.509Z,48.51
2023-04-24T05:24:54.610Z,48.60
2023-04-24T05:28:20.726Z,48.65
2023-04-24T05:31:34.238Z,48.52
2023-04-24T05:34:37.322Z,48.53
2023-04-24T05:37:40.125Z,48.69
2023-04-24T05:40:43.645Z,48.59
2023-04-24T05:43:46.431Z,48.68
2023-04-24T05:46:50.839Z,48.56
2023-04-24T05:49:55.081Z,48.57
2023-04-24T05:52:59.088Z,48.50
2023-04-24T05:56:06.518Z,48.36
2023-04-24T05:59:10.066Z,48.47
2023-04-24T06:02:14.747Z,48.46
2023-04-24T06:05:18.605Z,48.46
2023-04-24T06:08:21.384Z,48.55
2023-04-24T06:11:25.850Z,48.48
2023-04-24T06:14:28.904Z,48.44
2023-04-24T06:17:52.494Z,48.50
2023-04-24T06:20:57.090Z,48.45
2023-04-24T06:24:00.982Z,48.52
2023-04-24T06:27:03.811Z,48.54
2023-04-24T06:30:08.112Z,48.53
2023-04-24T06:33:20.011Z,48.42
2023-04-24T06:36:24.135Z,48.44
2023-04-24T06:39:26.951Z,48.43
2023-04-24T06:42:29.685Z,48.47
2023-04-24T06:45:32.492Z,48.44
2023-04-24T06:48:36.688Z,48.37
2023-04-24T06:51:39.486Z,48.50
2023-04-24T06:54:43.722Z,48.40
2023-04-24T06:57:46.752Z,48.43
2023-04-24T07:00:49.478Z,48.50
2023-04-24T07:03:53.754Z,48.45
2023-04-24T07:06:58.623Z,48.51
2023-04-24T07:10:01.572Z,48.41
2023-04-24T07:13:04.391Z,48.31
2023-04-24T07:16:07.218Z,48.50
2023-04-24T07:19:11.538Z,48.45
2023-04-24T07:22:36.566Z,48.41
2023-04-24T07:25:40.309Z,48.47
2023-04-24T07:28:43.212Z,48.44
2023-04-24T07:31:46.328Z,48.49
2023-04-24T07:34:50.811Z,48.54
2023-04-24T07:37:53.763Z,48.62
2023-04-24T07:40:56.612Z,48.71
2023-04-24T07:44:00.489Z,48.78
2023-04-24T07:47:03.392Z,48.88
2023-04-24T07:50:08.331Z,48.82
2023-04-24T07:53:11.244Z,48.87
2023-04-24T07:56:14.234Z,48.94
2023-04-24T07:59:17.137Z,48.99
2023-04-24T08:02:20.116Z,49.19
2023-04-24T08:05:26.617Z,49.16
2023-04-24T08:08:29.631Z,49.09
2023-04-24T08:11:32.808Z,49.14
2023-04-24T08:14:36.142Z,49.13
2023-04-24T08:17:38.957Z,49.23
2023-04-24T08:20:43.192Z,49.11
2023-04-24T08:23:46.111Z,49.22
2023-04-24T08:26:51.320Z,49.01
2023-04-24T08:29:55.185Z,49.07
2023-04-24T08:32:58.191Z,47.89
2023-04-24T08:36:02.470Z,47.49
2023-04-24T08:39:05.307Z,47.20
2023-04-24T08:42:09.200Z,46.91
2023-04-24T08:45:13.521Z,46.65
2023-04-24T08:48:29.660Z,46.69
2023-04-24T08:51:35.163Z,46.89
2023-04-24T08:54:39.059Z,46.96
2023-04-24T08:57:42.220Z,47.15
2023-04-24T09:00:48.086Z,47.18
2023-04-24T09:03:51.494Z,47.45
2023-04-24T09:06:57.925Z,47.57
2023-04-24T09:10:01.616Z,47.68
2023-04-24T09:13:04.467Z,47.68
2023-04-24T09:16:07.390Z,47.67
2023-04-24T09:19:10.364Z,47.68
2023-04-24T09:22:14.540Z,47.68
2023-04-24T09:25:18.284Z,47.82
2023-04-24T09:28:21.020Z,47.74
2023-04-24T09:31:24.207Z,48.01
2023-04-24T09:34:28.731Z,48.00
2023-04-24T09:37:38.042Z,48.02
2023-04-24T09:40:42.451Z,48.20
2023-04-24T09:43:45.308Z,48.14
2023-04-24T09:46:52.342Z,48.35
2023-04-24T09:50:00.071Z,48.32
2023-04-24T09:53:08.222Z,48.33
2023-04-24T09:56:13.452Z,48.38
2023-04-24T09:59:17.536Z,48.57
2023-04-24T10:02:21.645Z,48.55
2023-04-24T10:05:30.816Z,48.61
2023-04-24T10:08:37.291Z,48.69
2023-04-24T10:11:43.738Z,48.75
2023-04-24T10:14:48.687Z,48.74
2023-04-24T10:17:54.300Z,48.87
2023-04-24T10:20:57.890Z,49.02
2023-04-24T10:24:04.554Z,48.97
2023-04-24T10:27:07.824Z,48.93
2023-04-24T10:30:13.566Z,49.00
2023-04-24T10:33:16.907Z,49.09
2023-04-24T10:36:20.897Z,49.19
2023-04-24T10:39:27.291Z,49.15
2023-04-24T10:42:30.901Z,49.16
2023-04-24T10:45:33.924Z,49.25
2023-04-24T10:48:36.940Z,49.16
2023-04-24T10:52:17.544Z,48.99
2023-04-24T10:55:42.635Z,48.76
2023-04-24T10:58:47.500Z,48.69
2023-04-24T11:01:55.390Z,48.67
2023-04-24T11:04:58.318Z,48.67
2023-04-24T11:08:15.530Z,48.76
2023-04-24T11:11:21.798Z,48.85
2023-04-24T11:14:24.639Z,48.90
2023-04-24T11:17:34.993Z,49.01
2023-04-24T11:20:38.022Z,48.99
2023-04-24T11:23:41.848Z,49.12
2023-04-24T11:26:46.968Z,49.11
2023-04-24T11:29:51.252Z,49.14
2023-04-24T11:32:54.299Z,49.22
2023-04-24T11:35:57.312Z,49.48
2023-04-24T11:39:00.641Z,49.49
2023-04-24T11:42:08.161Z,49.68
2023-04-24T11:45:12.817Z,49.71
2023-04-24T11:48:22.524Z,49.69
2023-04-24T11:51:31.249Z,49.71
2023-04-24T11:54:39.224Z,49.77
2023-04-24T11:57:45.575Z,49.76
2023-04-24T12:00:48.369Z,49.74
2023-04-24T12:03:52.154Z,49.69
2023-04-24T12:07:02.002Z,49.69
2023-04-24T12:10:07.124Z,49.75
2023-04-24T12:13:11.689Z,49.68
2023-04-24T12:16:15.373Z,49.69
2023-04-24T12:19:21.296Z,49.69
2023-04-24T12:22:24.126Z,49.64
2023-04-24T12:25:29.219Z,49.74
2023-04-24T12:28:39.485Z,49.67
2023-04-24T12:31:42.380Z,49.51
2023-04-24T12:34:45.838Z,49.66
2023-04-24T12:37:48.902Z,49.57
2023-04-24T12:41:05.052Z,49.61
2023-04-24T12:44:13.157Z,49.63
2023-04-24T12:47:16.328Z,49.50
2023-04-24T12:50:19.334Z,49.59
2023-04-24T12:53:22.125Z,49.44
2023-04-24T12:56:25.393Z,49.52
2023-04-24T12:59:29.546Z,49.53
2023-04-24T13:02:32.840Z,49.48
2023-04-24T13:05:36.002Z,49.54
2023-04-24T13:08:39.046Z,49.55
2023-04-24T13:11:41.785Z,49.48
2023-04-24T13:14:46.545Z,49.44
2023-04-24T13:17:49.550Z,49.45
2023-04-24T13:20:52.351Z,49.40
2023-04-24T13:23:55.445Z,49.40
2023-04-24T13:26:58.377Z,49.44
2023-04-24T13:30:02.712Z,49.45
2023-04-24T13:33:05.796Z,49.48
2023-04-24T13:36:08.768Z,49.45
2023-04-24T13:39:12.055Z,49.46
2023-04-24T13:42:14.895Z,49.51
2023-04-24T13:45:25.160Z,49.57
2023-04-24T13:48:28.583Z,49.45
2023-04-24T13:51:32.195Z,49.53
2023-04-24T13:54:35.033Z,49.47
2023-04-24T13:57:37.927Z,49.45
2023-04-24T14:00:42.086Z,49.51
2023-04-24T14:03:45.800Z,49.45
2023-04-24T14:06:48.793Z,49.40
2023-04-24T14:09:51.864Z,49.41
2023-04-24T14:12:55.182Z,49.34
2023-04-24T14:16:00.238Z,49.49
2023-04-24T14:19:03.042Z,49.35
2023-04-24T14:22:05.877Z,49.37
2023-04-24T14:25:09.753Z,49.48
2023-04-24T14:28:12.505Z,49.42
2023-04-24T14:31:16.701Z,49.52
2023-04-24T14:34:19.489Z,49.56
2023-04-24T14:37:22.621Z,49.96
2023-04-24T14:40:48.407Z,50.00
2023-04-24T14:43:48.364Z,50.05
2023-04-24T14:46:52.732Z,49.91
2023-04-24T14:49:55.603Z,49.78
2023-04-24T14:52:59.211Z,49.64
2023-04-24T14:56:02.040Z,49.80
2023-04-24T14:59:05.080Z,49.67
2023-04-24T15:05:17.816Z,49.73
2023-04-24T15:08:21.237Z,49.67
2023-04-24T15:11:24.030Z,49.72
2023-04-24T15:14:26.911Z,49.68
2023-04-24T15:17:31.098Z,49.80
2023-04-24T15:20:35.134Z,49.76
2023-04-24T15:23:38.821Z,49.64
2023-04-24T15:26:41.701Z,49.59
2023-04-24T15:29:44.537Z,49.55
2023-04-24T15:32:48.722Z,49.55
2023-04-24T15:35:51.875Z,49.47
2023-04-24T15:38:54.683Z,49.39
2023-04-24T15:41:57.621Z,49.31
2023-04-24T15:45:00.587Z,49.57
2023-04-24T15:48:05.036Z,49.36
2023-04-24T15:51:07.817Z,49.34
2023-04-24T15:54:10.613Z,49.39
2023-04-24T15:57:14.028Z,49.43
2023-04-24T16:00:18.699Z,49.39
2023-04-24T16:03:23.607Z,49.35
2023-04-24T16:06:27.716Z,49.34
2023-04-24T16:09:30.498Z,49.38
2023-04-24T16:12:33.362Z,49.26
2023-04-24T16:15:37.392Z,49.25
2023-04-24T16:18:41.767Z,49.24
2023-04-24T16:21:44.543Z,49.22
2023-04-24T16:24:48.029Z,49.16
2023-04-24T16:27:52.681Z,49.17
2023-04-24T16:30:55.727Z,49.31
2023-04-24T16:33:59.840Z,49.24
2023-04-24T16:37:02.633Z,49.33
2023-04-24T16:40:10.770Z,49.24
2023-04-24T16:43:13.609Z,49.29
2023-04-24T16:46:16.448Z,49.14
2023-04-24T16:49:20.804Z,49.07
2023-04-24T16:52:23.594Z,49.11
2023-04-24T16:55:26.404Z,49.08
2023-04-24T16:58:29.216Z,48.85
2023-04-24T17:01:32.070Z,48.89
2023-04-24T17:04:36.538Z,48.97
2023-04-24T17:07:39.539Z,48.87
2023-04-24T17:10:42.350Z,48.89
2023-04-24T17:13:45.373Z,48.87
2023-04-24T17:16:48.392Z,48.85
2023-04-24T17:19:55.379Z,48.92
2023-04-24T17:22:58.259Z,49.02
2023-04-24T17:26:01.543Z,48.98
2023-04-24T17:29:04.297Z,49.03
2023-04-24T17:32:07.109Z,49.21
2023-04-24T17:35:12.282Z,49.04
2023-04-24T17:38:15.136Z,48.96
2023-04-24T17:41:17.919Z,48.92
2023-04-24T17:44:21.273Z,48.88
2023-04-24T17:47:26.123Z,48.98
2023-04-24T17:50:30.264Z,49.16
2023-04-24T17:53:33.129Z,49.21
2023-04-24T17:56:35.902Z,49.31
2023-04-24T17:59:38.725Z,49.22
2023-04-24T18:02:41.623Z,49.25
2023-04-24T18:05:45.778Z,49.20
2023-04-24T18:08:48.770Z,49.15
2023-04-24T18:11:51.826Z,49.23
2023-04-24T18:15:06.214Z,49.16
2023-04-24T18:18:17.784Z,49.27
2023-04-24T18:21:21.978Z,49.23
2023-04-24T18:24:24.877Z,49.27
2023-04-24T18:27:30.871Z,49.37
2023-04-24T18:30:34.758Z,49.31
2023-04-24T18:33:37.673Z,49.22
2023-04-24T18:36:41.958Z,49.17
2023-04-24T18:39:44.842Z,49.19
2023-04-24T18:42:47.701Z,49.12
2023-04-24T18:45:50.415Z,49.03
2023-04-24T18:48:53.258Z,48.96
2023-04-24T18:51:57.398Z,49.02
2023-04-24T18:55:01.568Z,48.87
2023-04-24T18:58:04.383Z,48.83
2023-04-24T19:01:08.312Z,48.96
2023-04-24T19:04:11.547Z,48.87
2023-04-24T19:07:15.937Z,48.92
2023-04-24T19:10:18.948Z,48.93
2023-04-24T19:13:21.723Z,48.82
2023-04-24T19:16:25.759Z,48.78
2023-04-24T19:19:29.900Z,48.83
2023-04-24T19:22:34.650Z,48.87
2023-04-24T19:25:37.561Z,48.73
2023-04-24T19:28:40.437Z,48.76
2023-04-24T19:31:43.296Z,48.55
2023-04-24T19:34:47.287Z,48.56
2023-04-24T19:37:51.439Z,48.47
2023-04-24T19:40:54.201Z,48.37
2023-04-24T19:43:56.974Z,48.49
2023-04-24T19:46:59.822Z,48.42
2023-04-24T19:50:02.656Z,48.39
2023-04-24T19:53:07.459Z,48.44
2023-04-24T19:56:10.538Z,48.24
2023-04-24T19:59:13.340Z,48.33
2023-04-24T20:02:16.274Z,48.37
2023-04-24T20:05:20.092Z,48.29
2023-04-24T20:08:24.359Z,48.25
2023-04-24T20:11:27.243Z,48.19
2023-04-24T20:14:29.999Z,48.11
2023-04-24T20:17:32.813Z,48.20
2023-04-24T20:20:38.609Z,48.17
2023-04-24T20:23:42.896Z,48.18
2023-04-24T20:26:45.618Z,48.27
2023-04-24T20:29:48.398Z,48.22
2023-04-24T20:32:51.320Z,48.06
2023-04-24T20:35:54.204Z,48.17
2023-04-24T20:38:58.314Z,48.19
2023-04-24T20:42:01.123Z,48.01
2023-04-24T20:45:04.022Z,48.06
2023-04-24T20:51:10.993Z,47.93
2023-04-24T20:54:15.128Z,47.96
2023-04-24T20:57:17.915Z,47.86
2023-04-24T21:00:20.756Z,47.90
2023-04-24T21:03:23.635Z,47.96
2023-04-24T21:06:27.117Z,47.96
2023-04-24T21:09:31.220Z,47.80
2023-04-24T21:12:33.942Z,47.79
2023-04-24T21:15:36.765Z,47.75
2023-04-24T21:18:41.341Z,47.79
2023-04-24T21:21:44.256Z,47.70
2023-04-24T21:24:48.382Z,47.68
2023-04-24T21:27:51.196Z,47.75
2023-04-24T21:30:53.956Z,47.61
2023-04-24T21:33:56.703Z,47.71
2023-04-24T21:36:59.727Z,47.63
2023-04-24T21:40:04.818Z,47.64
2023-04-24T21:43:07.747Z,47.60
2023-04-24T21:46:10.762Z,47.64
2023-04-24T21:49:13.656Z,47.61
2023-04-24T21:52:16.468Z,47.62
2023-04-24T21:55:21.390Z,47.77
2023-04-24T21:58:24.264Z,47.88
2023-04-24T22:01:27.003Z,47.88
2023-04-24T22:04:29.846Z,47.79
2023-04-24T22:07:35.227Z,47.79
2023-04-24T22:10:39.360Z,47.89
2023-04-24T22:13:42.078Z,47.91
2023-04-24T22:16:46.029Z,47.90
2023-04-24T22:19:48.960Z,47.94
2023-04-24T22:22:52.398Z,47.83
2023-04-24T22:25:56.593Z,47.85
2023-04-24T22:28:59.336Z,47.69
2023-04-24T22:32:02.177Z,47.71
2023-04-24T22:35:05.514Z,47.67
2023-04-24T22:38:08.279Z,47.68
2023-04-24T22:41:12.483Z,47.61
2023-04-24T22:44:15.296Z,47.57
2023-04-24T22:47:19.693Z,47.44
2023-04-24T22:50:22.520Z,47.50
2023-04-24T22:53:27.681Z,47.66
2023-04-24T22:56:32.565Z,47.55
2023-04-24T22:59:35.426Z,47.52
2023-04-24T23:02:39.768Z,47.55
2023-04-24T23:05:42.698Z,47.54
2023-04-24T23:08:47.170Z,47.54
2023-04-24T23:11:51.388Z,47.49
2023-04-24T23:14:54.173Z,47.61
2023-04-24T23:17:56.972Z,47.53
2023-04-24T23:21:02.250Z,47.57
2023-04-24T23:24:05.411Z,47.52
2023-04-24T23:27:09.525Z,47.43
2023-04-24T23:30:13.049Z,47.49
2023-04-24T23:33:15.879Z,47.41
2023-04-24T23:36:18.690Z,47.44
2023-04-24T23:39:21.487Z,47.46
2023-04-24T23:42:25.596Z,47.38
2023-04-24T23:45:28.691Z,47.34
2023-04-24T23:48:31.435Z,47.34
2023-04-24T23:51:34.223Z,47.40
2023-04-24T23:54:37.024Z,47.34
2023-04-24T23:57:41.143Z,47.33
